Time;durP1;ratioP1;P1;durP2;ratioP2;P2;SDS_P1;SDS_P2;PMS_P1;PMS_P2;Temp;Humidity;BMP_temperature;BMP_pressure;BME280_temperature;BME280_humidity;BME280_pressure;Samples;Min_cycle;Max_cycle;Signal;HPM_P1;HPM_P2
2022/01/30 00:00:50;;;;;;;43.75;20.42;;;;;;;;;;4995903;28;20038;-73
2022/01/30 00:03:18;;;;;;;43.33;21.83;;;;;;;;;;4995964;28;20081;-73
2022/01/30 00:05:46;;;;;;;40.80;21.30;;;;;;;;;;5040646;28;20046;-73
2022/01/30 00:08:14;;;;;;;41.50;21.35;;;;;;;;;;5076916;28;20020;-73
2022/01/30 00:10:42;;;;;;;40.78;20.25;;;;;;;;;;5076896;28;20020;-73
2022/01/30 00:13:13;;;;;;;40.97;20.45;;;;;;;;;;5059110;28;20093;-72
2022/01/30 00:15:51;;;;;;;41.17;20.13;;;;;;;;;;5076744;28;20025;-72
2022/01/30 00:23:30;;;;;;;43.92;21.30;;;;;;;;;;5076642;28;20101;-72
2022/01/30 00:25:58;;;;;;;44.28;20.75;;;;;;;;;;5076616;28;20437;-72
2022/01/30 00:28:27;;;;;;;38.67;19.08;;;;;;;;;;5058851;28;20024;-72
2022/01/30 00:30:55;;;;;;;42.38;20.77;;;;;;;;;;5058543;28;20048;-72
2022/01/30 00:33:22;;;;;;;41.25;20.52;;;;;;;;;;5076597;28;20446;-72
2022/01/30 00:35:50;;;;;;;33.03;17.10;;;;;;;;;;5076187;28;20027;-72
2022/01/30 00:38:22;;;;;;;35.30;16.13;;;;;;;;;;5076421;28;20024;-72
2022/01/30 00:40:51;;;;;;;34.35;16.33;;;;;;;;;;5076412;28;20418;-72
2022/01/30 00:43:22;;;;;;;33.90;17.00;;;;;;;;;;5076361;28;20375;-72
2022/01/30 00:45:49;;;;;;;39.55;17.70;;;;;;;;;;5076312;28;20078;-72
2022/01/30 00:48:18;;;;;;;30.70;16.40;;;;;;;;;;5076351;28;20029;-73
2022/01/30 00:50:52;;;;;;;29.17;16.35;;;;;;;;;;5076041;28;20421;-72
2022/01/30 00:53:19;;;;;;;35.50;16.75;;;;;;;;;;5075940;28;20029;-72
2022/01/30 00:55:47;;;;;;;31.52;14.98;;;;;;;;;;5076057;28;20044;-73
2022/01/30 00:58:17;;;;;;;30.75;16.17;;;;;;;;;;5075840;28;20117;-73
2022/01/30 01:00:45;;;;;;;31.10;15.80;;;;;;;;;;5075933;28;20016;-72
2022/01/30 01:03:13;;;;;;;26.90;14.73;;;;;;;;;;5076005;28;20099;-73
2022/01/30 01:05:40;;;;;;;32.58;13.75;;;;;;;;;;5057895;28;20116;-73
2022/01/30 01:08:20;;;;;;;32.35;15.93;;;;;;;;;;5075899;28;20025;-72
2022/01/30 01:24:06;;;;;;;25.27;14.27;;;;;;;;;;5075627;28;20112;-73
2022/01/30 01:26:35;;;;;;;31.98;15.85;;;;;;;;;;5075575;28;20031;-72
2022/01/30 01:29:01;;;;;;;27.27;14.98;;;;;;;;;;5057400;28;20028;-72
2022/01/30 01:31:29;;;;;;;29.48;14.93;;;;;;;;;;5075532;28;20029;-72
2022/01/30 01:36:43;;;;;;;23.98;12.95;;;;;;;;;;5076297;28;20324;-72
2022/01/30 01:39:10;;;;;;;25.63;12.27;;;;;;;;;;5075562;28;20021;-72
2022/01/30 01:41:38;;;;;;;25.30;13.57;;;;;;;;;;5057751;28;20028;-72
2022/01/30 01:44:14;;;;;;;28.08;14.30;;;;;;;;;;5075570;28;20024;-72
2022/01/30 01:46:42;;;;;;;28.77;15.57;;;;;;;;;;5057723;28;20077;-72
2022/01/30 01:49:18;;;;;;;30.63;14.43;;;;;;;;;;5078244;28;20024;-73
2022/01/30 01:52:00;;;;;;;28.20;14.48;;;;;;;;;;5079359;28;20025;-71
2022/01/30 01:54:27;;;;;;;28.17;15.75;;;;;;;;;;5079334;28;20069;-72
2022/01/30 01:56:55;;;;;;;27.15;14.80;;;;;;;;;;5079236;28;20384;-73
2022/01/30 01:59:22;;;;;;;25.20;13.40;;;;;;;;;;5079222;28;20092;-72
2022/01/30 02:01:52;;;;;;;26.50;15.38;;;;;;;;;;5079193;28;20025;-72
2022/01/30 02:04:20;;;;;;;28.65;15.13;;;;;;;;;;5079145;28;20463;-72
2022/01/30 02:06:49;;;;;;;28.30;14.55;;;;;;;;;;5079163;28;20028;-73
2022/01/30 02:09:17;;;;;;;24.83;15.07;;;;;;;;;;5079254;28;20024;-71
2022/01/30 02:11:46;;;;;;;29.83;16.13;;;;;;;;;;5061201;28;20021;-72
2022/01/30 02:14:26;;;;;;;25.98;14.77;;;;;;;;;;5079072;28;20021;-73
2022/01/30 02:27:39;;;;;;;30.58;15.25;;;;;;;;;;5078934;28;20096;-72
2022/01/30 02:30:09;;;;;;;28.27;14.13;;;;;;;;;;5078686;28;20052;-72
2022/01/30 02:32:36;;;;;;;37.95;17.48;;;;;;;;;;5078509;28;20433;-71
2022/01/30 02:35:04;;;;;;;38.45;18.60;;;;;;;;;;5060882;28;20028;-71
2022/01/30 02:37:32;;;;;;;34.85;17.73;;;;;;;;;;5078576;28;20024;-71
2022/01/30 02:39:59;;;;;;;33.60;16.90;;;;;;;;;;5078690;28;20020;-72
2022/01/30 02:42:31;;;;;;;41.85;17.48;;;;;;;;;;5078624;28;20021;-71
2022/01/30 02:45:03;;;;;;;38.80;18.05;;;;;;;;;;5078562;28;20024;-72
2022/01/30 02:50:20;;;;;;;48.30;22.75;;;;;;;;;;5078437;28;20112;-72
2022/01/30 02:52:57;;;;;;;45.58;23.02;;;;;;;;;;5078347;28;20032;-72
2022/01/30 02:55:24;;;;;;;43.38;21.60;;;;;;;;;;5078259;28;20012;-72
2022/01/30 02:57:52;;;;;;;44.58;21.65;;;;;;;;;;5078289;28;20025;-72
2022/01/30 03:00:20;;;;;;;52.13;22.30;;;;;;;;;;5078231;28;20016;-72
2022/01/30 03:02:47;;;;;;;53.38;27.17;;;;;;;;;;5077936;28;20020;-73
2022/01/30 03:05:15;;;;;;;52.83;25.77;;;;;;;;;;5077970;28;20107;-73
2022/01/30 03:07:42;;;;;;;49.10;25.92;;;;;;;;;;5077584;28;20052;-74
2022/01/30 03:10:11;;;;;;;58.15;27.65;;;;;;;;;;5077850;28;20108;-72
2022/01/30 03:12:39;;;;;;;54.50;25.85;;;;;;;;;;5059808;28;20025;-72
2022/01/30 03:15:07;;;;;;;54.92;26.52;;;;;;;;;;5059041;28;20413;-72
2022/01/30 03:17:34;;;;;;;56.22;26.80;;;;;;;;;;5077086;28;20024;-72
2022/01/30 03:20:03;;;;;;;48.65;24.30;;;;;;;;;;5077574;28;20020;-73
2022/01/30 03:22:31;;;;;;;47.13;23.23;;;;;;;;;;5059668;28;20025;-72
2022/01/30 03:24:58;;;;;;;41.08;21.85;;;;;;;;;;5060009;28;20036;-67
2022/01/30 03:27:28;;;;;;;45.20;22.38;;;;;;;;;;5077618;28;20146;-68
2022/01/30 03:30:03;;;;;;;40.75;21.33;;;;;;;;;;5059435;28;20321;-71
2022/01/30 03:32:30;;;;;;;34.30;19.70;;;;;;;;;;5076814;28;20025;-69
2022/01/30 03:34:57;;;;;;;32.10;17.75;;;;;;;;;;5077440;28;20025;-70
2022/01/30 03:37:25;;;;;;;28.67;16.95;;;;;;;;;;5059656;28;20025;-69
2022/01/30 03:39:53;;;;;;;33.13;16.85;;;;;;;;;;5077518;28;20074;-70
2022/01/30 03:42:21;;;;;;;32.38;17.58;;;;;;;;;;5059667;28;20507;-70
2022/01/30 03:44:49;;;;;;;35.08;17.02;;;;;;;;;;5077372;28;20033;-70
2022/01/30 03:47:16;;;;;;;34.78;16.85;;;;;;;;;;5059448;28;20024;-69
2022/01/30 03:49:44;;;;;;;41.60;19.33;;;;;;;;;;5077038;28;20103;-69
2022/01/30 03:52:11;;;;;;;37.33;17.80;;;;;;;;;;5076791;28;20032;-69
2022/01/30 03:54:39;;;;;;;30.05;15.73;;;;;;;;;;5077096;28;20025;-69
2022/01/30 03:57:07;;;;;;;32.97;15.95;;;;;;;;;;5059189;28;20020;-70
2022/01/30 03:59:34;;;;;;;28.30;16.20;;;;;;;;;;5077005;28;20017;-70
2022/01/30 04:02:03;;;;;;;29.48;17.40;;;;;;;;;;5059189;28;20337;-70
2022/01/30 04:04:34;;;;;;;29.63;16.25;;;;;;;;;;5076887;28;20024;-70
2022/01/30 04:07:01;;;;;;;24.70;14.43;;;;;;;;;;5059144;28;20452;-70
2022/01/30 04:09:29;;;;;;;24.98;14.32;;;;;;;;;;5059060;28;20029;-69
2022/01/30 04:11:57;;;;;;;26.48;13.32;;;;;;;;;;5076388;28;20024;-70
2022/01/30 04:14:25;;;;;;;31.08;15.23;;;;;;;;;;5059063;28;20021;-70
2022/01/30 04:16:52;;;;;;;33.30;15.98;;;;;;;;;;5076404;28;20032;-69
2022/01/30 04:19:20;;;;;;;31.52;15.40;;;;;;;;;;5076678;28;20024;-69
2022/01/30 04:21:47;;;;;;;25.38;13.10;;;;;;;;;;5058834;28;20035;-69
2022/01/30 04:24:15;;;;;;;28.30;15.00;;;;;;;;;;5076464;28;20603;-69
2022/01/30 04:26:44;;;;;;;32.55;15.90;;;;;;;;;;5076290;28;20421;-69
2022/01/30 04:29:10;;;;;;;36.45;16.02;;;;;;;;;;5075709;28;20032;-71
2022/01/30 04:31:38;;;;;;;35.15;15.93;;;;;;;;;;5075938;28;20031;-70
2022/01/30 04:34:08;;;;;;;34.92;16.17;;;;;;;;;;5076153;28;20024;-70
2022/01/30 04:36:41;;;;;;;41.67;17.88;;;;;;;;;;5076015;28;20036;-71
2022/01/30 04:39:29;;;;;;;39.75;17.05;;;;;;;;;;5059033;28;20024;-71
2022/01/30 04:52:53;;;;;;;42.63;18.35;;;;;;;;;;5075792;28;20048;-72
2022/01/30 05:05:56;;;;;;;61.25;28.00;;;;;;;;;;5075972;28;20032;-72
2022/01/30 05:08:23;;;;;;;50.70;25.30;;;;;;;;;;5075244;28;20029;-70
2022/01/30 05:10:53;;;;;;;53.10;23.92;;;;;;;;;;5058092;28;20029;-71
2022/01/30 05:13:24;;;;;;;50.05;23.00;;;;;;;;;;5075990;28;20092;-70
2022/01/30 05:15:52;;;;;;;47.75;20.58;;;;;;;;;;5075901;28;20060;-71
2022/01/30 05:18:21;;;;;;;67.72;22.52;;;;;;;;;;5076030;28;20021;-71
2022/01/30 05:20:49;;;;;;;70.93;24.80;;;;;;;;;;5076129;28;20040;-71
2022/01/30 05:23:17;;;;;;;62.95;19.85;;;;;;;;;;5059610;28;20021;-71
2022/01/30 05:25:46;;;;;;;60.72;19.65;;;;;;;;;;5062147;28;20028;-71
2022/01/30 05:28:17;;;;;;;43.67;15.43;;;;;;;;;;5062304;28;20090;-71
2022/01/30 05:30:44;;;;;;;49.85;17.33;;;;;;;;;;5079741;28;20045;-71
2022/01/30 05:33:11;;;;;;;36.92;14.63;;;;;;;;;;5080209;28;20093;-70
2022/01/30 05:35:39;;;;;;;30.52;12.75;;;;;;;;;;5080205;28;20025;-70
2022/01/30 05:38:07;;;;;;;31.17;13.73;;;;;;;;;;5080009;28;20021;-71
2022/01/30 05:40:35;;;;;;;38.50;15.15;;;;;;;;;;5079947;28;20099;-71
2022/01/30 05:43:04;;;;;;;37.80;16.20;;;;;;;;;;5079751;28;20021;-71
2022/01/30 05:45:42;;;;;;;31.17;13.30;;;;;;;;;;5061826;28;20028;-71
2022/01/30 05:48:19;;;;;;;40.05;16.20;;;;;;;;;;5079758;28;20030;-72
2022/01/30 05:50:46;;;;;;;26.00;13.27;;;;;;;;;;5061843;28;20439;-72
2022/01/30 05:53:14;;;;;;;31.75;15.05;;;;;;;;;;5061627;28;20310;-71
2022/01/30 05:55:42;;;;;;;32.78;14.27;;;;;;;;;;5079596;28;20077;-69
2022/01/30 05:58:09;;;;;;;26.77;12.05;;;;;;;;;;5061830;28;20028;-68
2022/01/30 06:00:37;;;;;;;20.85;11.80;;;;;;;;;;5061486;28;20017;-69
2022/01/30 06:03:04;;;;;;;29.42;10.73;;;;;;;;;;5079271;28;20080;-69
2022/01/30 06:05:32;;;;;;;26.70;13.38;;;;;;;;;;5079222;28;20032;-70
2022/01/30 06:08:09;;;;;;;27.77;12.18;;;;;;;;;;5079106;28;20025;-70
2022/01/30 06:10:37;;;;;;;30.08;11.93;;;;;;;;;;5078850;28;20028;-69
2022/01/30 06:13:05;;;;;;;29.05;14.48;;;;;;;;;;5060833;28;20024;-70
2022/01/30 06:15:32;;;;;;;29.60;14.27;;;;;;;;;;5078659;28;20017;-70
2022/01/30 06:18:00;;;;;;;29.13;13.95;;;;;;;;;;5078902;28;20477;-70
2022/01/30 06:20:28;;;;;;;38.63;20.35;;;;;;;;;;5078943;28;20028;-70
2022/01/30 06:22:55;;;;;;;29.60;13.75;;;;;;;;;;5061079;28;20115;-70
2022/01/30 06:25:23;;;;;;;30.98;14.75;;;;;;;;;;5078805;28;20056;-70
2022/01/30 06:27:51;;;;;;;18.83;11.43;;;;;;;;;;5078733;28;20044;-70
2022/01/30 06:30:21;;;;;;;27.63;13.02;;;;;;;;;;5078617;28;20055;-70
2022/01/30 06:32:48;;;;;;;39.83;17.83;;;;;;;;;;5078545;28;20025;-69
2022/01/30 06:35:16;;;;;;;33.65;15.00;;;;;;;;;;5077859;28;20021;-70
2022/01/30 06:37:44;;;;;;;31.55;16.98;;;;;;;;;;5060713;28;20024;-70
2022/01/30 06:40:12;;;;;;;34.92;17.42;;;;;;;;;;5060713;28;20333;-71
2022/01/30 06:42:44;;;;;;;27.98;12.68;;;;;;;;;;5078270;28;20033;-71
2022/01/30 06:45:11;;;;;;;34.05;12.43;;;;;;;;;;5078217;28;20025;-71
2022/01/30 06:47:45;;;;;;;26.92;12.65;;;;;;;;;;5060520;28;20325;-71
2022/01/30 06:50:13;;;;;;;24.85;13.10;;;;;;;;;;5077729;28;20372;-72
2022/01/30 06:52:41;;;;;;;42.30;18.38;;;;;;;;;;5077812;28;20134;-71
2022/01/30 06:55:08;;;;;;;35.70;18.50;;;;;;;;;;5059789;28;20060;-72
2022/01/30 06:57:43;;;;;;;35.13;18.00;;;;;;;;;;5077877;28;20479;-71
2022/01/30 07:00:11;;;;;;;27.77;15.00;;;;;;;;;;5077649;28;20048;-74
2022/01/30 07:02:38;;;;;;;39.00;18.98;;;;;;;;;;5060028;28;20080;-71
2022/01/30 07:05:06;;;;;;;27.00;14.80;;;;;;;;;;5077609;28;20074;-73
2022/01/30 07:07:33;;;;;;;23.35;12.85;;;;;;;;;;5059263;28;20020;-70
2022/01/30 07:10:01;;;;;;;25.77;13.80;;;;;;;;;;5077077;28;20032;-71
2022/01/30 07:12:28;;;;;;;28.17;14.45;;;;;;;;;;5077053;28;20025;-72
2022/01/30 07:14:56;;;;;;;32.67;17.23;;;;;;;;;;5077412;28;20070;-71
2022/01/30 07:17:24;;;;;;;29.30;16.05;;;;;;;;;;5076876;28;20024;-71
2022/01/30 07:19:52;;;;;;;28.65;17.23;;;;;;;;;;5059031;28;20123;-71
2022/01/30 07:22:19;;;;;;;39.90;21.33;;;;;;;;;;5076645;28;20024;-72
2022/01/30 07:24:47;;;;;;;28.27;14.77;;;;;;;;;;5076938;28;20028;-70
2022/01/30 07:27:15;;;;;;;27.98;14.95;;;;;;;;;;5076579;28;20020;-71
2022/01/30 07:29:44;;;;;;;31.08;15.63;;;;;;;;;;5058559;28;20059;-72
2022/01/30 07:32:10;;;;;;;31.40;16.90;;;;;;;;;;5075753;28;20028;-71
2022/01/30 07:34:38;;;;;;;32.83;18.05;;;;;;;;;;5076669;28;20099;-72
2022/01/30 07:37:05;;;;;;;33.58;18.00;;;;;;;;;;5058959;28;20037;-73
2022/01/30 07:39:33;;;;;;;29.52;17.48;;;;;;;;;;5076360;28;20079;-72
2022/01/30 07:42:01;;;;;;;37.72;20.23;;;;;;;;;;5076323;28;20021;-73
2022/01/30 07:44:29;;;;;;;30.65;16.90;;;;;;;;;;5076614;28;20069;-72
2022/01/30 07:46:56;;;;;;;39.65;20.13;;;;;;;;;;5057913;28;20052;-71
2022/01/30 07:49:24;;;;;;;30.88;16.23;;;;;;;;;;5076366;28;20102;-72
2022/01/30 07:51:53;;;;;;;32.75;17.50;;;;;;;;;;5076323;28;20118;-72
2022/01/30 07:54:21;;;;;;;31.23;16.73;;;;;;;;;;5076147;28;20020;-72
2022/01/30 07:56:49;;;;;;;37.50;18.63;;;;;;;;;;5057935;28;20028;-72
2022/01/30 07:59:17;;;;;;;33.45;17.80;;;;;;;;;;5075855;28;20028;-73
2022/01/30 08:01:46;;;;;;;41.83;17.42;;;;;;;;;;5076049;28;20035;-72
2022/01/30 08:04:14;;;;;;;31.52;16.55;;;;;;;;;;5075689;28;20020;-73
2022/01/30 08:06:41;;;;;;;34.13;17.13;;;;;;;;;;5058072;28;20112;-73
2022/01/30 08:09:09;;;;;;;34.42;18.00;;;;;;;;;;5058162;28;20111;-73
2022/01/30 08:11:37;;;;;;;38.20;18.95;;;;;;;;;;5057706;28;20384;-72
2022/01/30 08:14:12;;;;;;;33.80;18.13;;;;;;;;;;5075675;28;20140;-75
2022/01/30 08:16:40;;;;;;;44.67;20.63;;;;;;;;;;5075436;28;20025;-71
2022/01/30 08:19:08;;;;;;;36.72;19.27;;;;;;;;;;5075658;28;20025;-71
2022/01/30 08:21:35;;;;;;;39.10;21.00;;;;;;;;;;5075399;28;20024;-75
2022/01/30 08:24:06;;;;;;;28.65;16.83;;;;;;;;;;5057432;28;20048;-74
2022/01/30 08:26:33;;;;;;;35.97;18.98;;;;;;;;;;5075140;28;20028;-72
2022/01/30 08:29:01;;;;;;;34.10;16.50;;;;;;;;;;5075280;28;20324;-73
2022/01/30 08:31:29;;;;;;;38.75;19.25;;;;;;;;;;5075112;28;20040;-72
2022/01/30 08:33:56;;;;;;;39.47;21.23;;;;;;;;;;5057614;28;20021;-73
2022/01/30 08:36:24;;;;;;;37.40;20.27;;;;;;;;;;5075256;28;20038;-78
2022/01/30 08:38:53;;;;;;;34.30;18.73;;;;;;;;;;5057341;28;20100;-71
2022/01/30 08:41:21;;;;;;;32.65;18.05;;;;;;;;;;5073914;28;20017;-73
2022/01/30 08:43:48;;;;;;;34.25;18.05;;;;;;;;;;5057081;28;20044;-72
2022/01/30 08:46:17;;;;;;;38.78;19.95;;;;;;;;;;5057045;28;20052;-73
2022/01/30 08:48:45;;;;;;;35.80;18.25;;;;;;;;;;5074879;28;20428;-74
2022/01/30 08:51:12;;;;;;;53.20;26.35;;;;;;;;;;5074948;28;20082;-71
2022/01/30 08:53:41;;;;;;;42.20;21.05;;;;;;;;;;5057761;28;20040;-70
2022/01/30 08:56:08;;;;;;;40.42;21.52;;;;;;;;;;5075084;28;20066;-72
2022/01/30 08:58:36;;;;;;;42.83;21.88;;;;;;;;;;5074995;28;20329;-72
2022/01/30 09:01:03;;;;;;;34.92;18.20;;;;;;;;;;5075152;28;20432;-72
2022/01/30 09:03:31;;;;;;;35.63;19.38;;;;;;;;;;5074946;28;20028;-72
2022/01/30 09:05:59;;;;;;;42.25;20.30;;;;;;;;;;5057330;28;20079;-72
2022/01/30 09:08:27;;;;;;;52.72;27.58;;;;;;;;;;5075183;28;20029;-72
2022/01/30 09:10:57;;;;;;;42.13;21.48;;;;;;;;;;5056798;28;20055;-72
2022/01/30 09:13:25;;;;;;;37.38;20.58;;;;;;;;;;5074715;28;20020;-72
2022/01/30 09:15:57;;;;;;;45.58;23.13;;;;;;;;;;5075100;28;20028;-73
2022/01/30 09:18:26;;;;;;;46.40;25.52;;;;;;;;;;5074580;28;20321;-72
2022/01/30 09:20:54;;;;;;;47.33;22.73;;;;;;;;;;5057014;28;20408;-71
2022/01/30 09:23:22;;;;;;;57.00;25.80;;;;;;;;;;5056934;28;20040;-71
2022/01/30 09:25:50;;;;;;;56.25;27.02;;;;;;;;;;5074892;28;20017;-73
2022/01/30 09:28:17;;;;;;;43.20;22.05;;;;;;;;;;5074690;28;20048;-71
2022/01/30 09:30:44;;;;;;;45.00;22.10;;;;;;;;;;5056433;28;20041;-72
2022/01/30 09:33:12;;;;;;;43.47;22.67;;;;;;;;;;5056884;28;20037;-72
2022/01/30 09:35:40;;;;;;;43.13;22.92;;;;;;;;;;5074908;28;20028;-73
2022/01/30 09:38:07;;;;;;;57.00;27.58;;;;;;;;;;5075045;28;20409;-73
2022/01/30 09:40:35;;;;;;;44.00;21.33;;;;;;;;;;5074686;28;20021;-73
2022/01/30 09:43:03;;;;;;;47.70;23.85;;;;;;;;;;5074596;28;20025;-73
2022/01/30 09:45:31;;;;;;;99.15;45.42;;;;;;;;;;5074429;28;20028;-73
2022/01/30 09:47:58;;;;;;;51.83;26.13;;;;;;;;;;5074624;28;20031;-72
2022/01/30 09:50:26;;;;;;;58.63;27.75;;;;;;;;;;5056610;28;20392;-73
2022/01/30 09:52:54;;;;;;;58.17;28.27;;;;;;;;;;5074406;28;20035;-72
2022/01/30 09:55:23;;;;;;;44.10;23.58;;;;;;;;;;5056222;28;20021;-73
2022/01/30 09:57:52;;;;;;;60.72;28.17;;;;;;;;;;5074271;28;20029;-73
2022/01/30 10:00:20;;;;;;;64.07;30.10;;;;;;;;;;5074441;28;20028;-72
2022/01/30 10:02:47;;;;;;;61.42;27.02;;;;;;;;;;5074811;28;20024;-71
2022/01/30 10:05:16;;;;;;;53.25;28.10;;;;;;;;;;5077097;28;20059;-70
2022/01/30 10:07:53;;;;;;;47.08;24.48;;;;;;;;;;5074844;28;20027;-71
2022/01/30 10:10:28;;;;;;;46.78;24.00;;;;;;;;;;5077857;28;20318;-71
2022/01/30 10:13:07;;;;;;;52.92;27.15;;;;;;;;;;5078746;28;20056;-72
2022/01/30 10:15:54;;;;;;;62.22;30.83;;;;;;;;;;5078559;28;20055;-72
2022/01/30 10:18:27;;;;;;;56.03;28.38;;;;;;;;;;5060948;28;20467;-72
2022/01/30 10:20:54;;;;;;;54.10;27.52;;;;;;;;;;5020091;28;20044;-73
2022/01/30 10:23:31;;;;;;;53.88;26.45;;;;;;;;;;5036673;28;20099;-73
2022/01/30 10:26:01;;;;;;;62.83;32.88;;;;;;;;;;5036550;28;20080;-73
2022/01/30 10:28:35;;;;;;;62.13;28.23;;;;;;;;;;5036492;28;20029;-71
2022/01/30 10:31:03;;;;;;;60.63;28.38;;;;;;;;;;5036571;28;20061;-71
2022/01/30 10:33:45;;;;;;;57.63;28.58;;;;;;;;;;5036569;28;20029;-71
2022/01/30 10:36:26;;;;;;;64.05;30.42;;;;;;;;;;5036584;28;20048;-72
2022/01/30 10:39:17;;;;;;;67.70;30.85;;;;;;;;;;5020069;28;20029;-72
2022/01/30 10:41:52;;;;;;;59.05;28.48;;;;;;;;;;5035859;28;20116;-72
2022/01/30 10:44:20;;;;;;;67.60;30.23;;;;;;;;;;5036197;28;20026;-71
2022/01/30 10:46:49;;;;;;;53.63;26.77;;;;;;;;;;5036452;28;20049;-73
2022/01/30 10:49:19;;;;;;;83.93;41.72;;;;;;;;;;5036068;28;20133;-70
2022/01/30 10:52:02;;;;;;;63.95;31.77;;;;;;;;;;5019675;28;20025;-71
2022/01/30 10:54:34;;;;;;;62.40;29.58;;;;;;;;;;5016234;28;20034;-71
2022/01/30 10:57:11;;;;;;;54.78;27.35;;;;;;;;;;5016544;28;20358;-71
2022/01/30 10:59:43;;;;;;;64.35;32.22;;;;;;;;;;5016232;28;20022;-71
2022/01/30 11:02:16;;;;;;;86.47;37.97;;;;;;;;;;5016055;28;20042;-70
2022/01/30 11:04:46;;;;;;;80.25;35.45;;;;;;;;;;5015957;28;20030;-71
2022/01/30 11:07:20;;;;;;;74.50;33.70;;;;;;;;;;5015809;28;20107;-71
2022/01/30 11:10:23;;;;;;;139.27;60.15;;;;;;;;;;5016050;28;20037;-72
2022/01/30 11:13:08;;;;;;;74.55;32.63;;;;;;;;;;5006281;28;20042;-73
2022/01/30 11:15:44;;;;;;;91.70;42.22;;;;;;;;;;5015763;28;20026;-71
2022/01/30 11:18:12;;;;;;;89.13;43.65;;;;;;;;;;4999130;28;20423;-72
2022/01/30 11:20:40;;;;;;;80.28;38.25;;;;;;;;;;4997681;28;20040;-74
2022/01/30 11:23:09;;;;;;;70.05;32.33;;;;;;;;;;5015571;28;20060;-72
2022/01/30 11:25:38;;;;;;;99.38;41.63;;;;;;;;;;5015261;28;20041;-76
2022/01/30 11:28:10;;;;;;;79.13;38.42;;;;;;;;;;5014968;28;20033;-74
2022/01/30 11:30:36;;;;;;;89.95;41.63;;;;;;;;;;4998864;28;20045;-72
2022/01/30 11:33:02;;;;;;;112.07;49.13;;;;;;;;;;5015169;28;20041;-73
2022/01/30 11:35:30;;;;;;;112.13;53.53;;;;;;;;;;4999010;28;20572;-72
2022/01/30 11:37:58;;;;;;;136.70;63.05;;;;;;;;;;5019978;28;20036;-71
2022/01/30 11:40:25;;;;;;;155.38;69.93;;;;;;;;;;5077086;28;20032;-72
2022/01/30 11:42:53;;;;;;;146.68;66.32;;;;;;;;;;5076940;28;20016;-72
2022/01/30 11:45:27;;;;;;;133.43;59.75;;;;;;;;;;5059231;28;20035;-70
2022/01/30 11:48:23;;;;;;;132.23;62.75;;;;;;;;;;5076796;28;20024;-72
2022/01/30 11:51:01;;;;;;;115.53;54.25;;;;;;;;;;5059956;28;20139;-71
2022/01/30 11:53:28;;;;;;;156.02;68.93;;;;;;;;;;5076663;28;20406;-70
2022/01/30 11:56:03;;;;;;;132.75;60.50;;;;;;;;;;5059058;28;20025;-72
2022/01/30 11:58:42;;;;;;;160.43;70.63;;;;;;;;;;5076845;28;20028;-71
2022/01/30 12:01:27;;;;;;;157.80;72.85;;;;;;;;;;5058887;28;20074;-72
2022/01/30 12:04:00;;;;;;;186.10;91.80;;;;;;;;;;5058924;28;20428;-72
2022/01/30 12:06:31;;;;;;;422.63;234.82;;;;;;;;;;5059036;28;20024;-72
2022/01/30 12:09:00;;;;;;;243.98;126.63;;;;;;;;;;5076771;28;20024;-72
2022/01/30 12:11:43;;;;;;;280.00;144.13;;;;;;;;;;5058767;28;20032;-72
2022/01/30 12:14:34;;;;;;;374.13;147.95;;;;;;;;;;5076603;28;20448;-72
2022/01/30 12:17:02;;;;;;;389.83;157.02;;;;;;;;;;4995314;28;20034;-72
2022/01/30 12:19:37;;;;;;;345.77;146.95;;;;;;;;;;4995164;28;20038;-71
2022/01/30 12:22:27;;;;;;;304.05;127.80;;;;;;;;;;4995221;28;20466;-72
2022/01/30 12:25:15;;;;;;;390.70;146.77;;;;;;;;;;4995249;28;20038;-72
2022/01/30 12:27:54;;;;;;;491.27;194.00;;;;;;;;;;4902175;29;20078;-72
2022/01/30 12:30:40;;;;;;;272.05;125.20;;;;;;;;;;4917877;29;20051;-72
2022/01/30 12:33:25;;;;;;;183.40;80.70;;;;;;;;;;4917385;29;20190;-72
2022/01/30 12:35:53;;;;;;;166.00;77.47;;;;;;;;;;4918021;29;20036;-72
2022/01/30 12:38:29;;;;;;;156.02;69.72;;;;;;;;;;4917925;29;20510;-72
2022/01/30 12:40:57;;;;;;;186.88;79.22;;;;;;;;;;4918044;29;20087;-72
2022/01/30 12:43:31;;;;;;;223.57;98.00;;;;;;;;;;4918023;29;20071;-73
2022/01/30 12:46:05;;;;;;;230.90;104.65;;;;;;;;;;4917977;29;20044;-73
2022/01/30 12:48:33;;;;;;;227.70;102.57;;;;;;;;;;4917954;29;20044;-73
2022/01/30 12:51:05;;;;;;;224.45;102.18;;;;;;;;;;4917905;29;20036;-73
2022/01/30 12:53:35;;;;;;;253.10;124.47;;;;;;;;;;4941437;28;20436;-72
2022/01/30 12:56:02;;;;;;;270.90;127.35;;;;;;;;;;4994673;28;20028;-72
2022/01/30 12:58:34;;;;;;;303.92;146.35;;;;;;;;;;4978371;28;20060;-72
2022/01/30 13:01:12;;;;;;;325.63;158.07;;;;;;;;;;4978279;28;20019;-72
2022/01/30 13:03:43;;;;;;;320.88;156.70;;;;;;;;;;4997316;28;20036;-72
2022/01/30 13:06:11;;;;;;;307.35;146.40;;;;;;;;;;5057823;28;20032;-72
2022/01/30 13:08:52;;;;;;;309.45;155.30;;;;;;;;;;5075921;28;20024;-73
2022/01/30 13:11:21;;;;;;;299.02;146.77;;;;;;;;;;5057949;28;20028;-72
2022/01/30 13:13:59;;;;;;;313.90;157.27;;;;;;;;;;5075814;28;20055;-73
2022/01/30 13:16:32;;;;;;;313.25;152.15;;;;;;;;;;5057944;28;20070;-72
2022/01/30 13:19:03;;;;;;;315.00;150.38;;;;;;;;;;5057819;28;20024;-72
2022/01/30 13:21:31;;;;;;;322.58;153.75;;;;;;;;;;5075421;28;20035;-73
2022/01/30 13:24:00;;;;;;;331.20;156.27;;;;;;;;;;5057704;28;20040;-73
2022/01/30 13:26:43;;;;;;;321.10;149.02;;;;;;;;;;5057736;28;20055;-73
2022/01/30 13:29:11;;;;;;;323.00;146.95;;;;;;;;;;5075205;28;20074;-71
2022/01/30 13:31:39;;;;;;;301.80;143.80;;;;;;;;;;5057608;28;20029;-74
2022/01/30 13:34:07;;;;;;;295.95;144.05;;;;;;;;;;5057659;28;20325;-73
2022/01/30 13:36:35;;;;;;;277.38;136.60;;;;;;;;;;5075526;28;20035;-73
2022/01/30 13:39:09;;;;;;;286.30;139.23;;;;;;;;;;5058234;28;20044;-74
2022/01/30 13:41:59;;;;;;;292.92;140.73;;;;;;;;;;5076290;28;20021;-75
2022/01/30 13:44:37;;;;;;;290.23;138.68;;;;;;;;;;5035904;28;20034;-76
2022/01/30 13:47:05;;;;;;;292.08;137.65;;;;;;;;;;5037576;28;20034;-76
2022/01/30 13:49:43;;;;;;;293.75;138.00;;;;;;;;;;5021377;28;20065;-73
2022/01/30 13:52:12;;;;;;;300.08;140.38;;;;;;;;;;5037564;28;20029;-72
2022/01/30 13:54:42;;;;;;;308.88;146.38;;;;;;;;;;5037816;28;20366;-72
2022/01/30 13:57:11;;;;;;;309.70;142.57;;;;;;;;;;5037302;28;20037;-73
2022/01/30 13:59:39;;;;;;;311.75;147.38;;;;;;;;;;5037517;28;20032;-72
2022/01/30 14:02:07;;;;;;;332.70;157.30;;;;;;;;;;5020895;28;20064;-72
2022/01/30 14:04:39;;;;;;;334.15;156.10;;;;;;;;;;5037589;28;20114;-73
2022/01/30 14:07:22;;;;;;;332.27;152.95;;;;;;;;;;5037519;28;20105;-72
2022/01/30 14:09:53;;;;;;;308.33;144.90;;;;;;;;;;5020996;28;20319;-73
2022/01/30 14:12:37;;;;;;;320.60;141.48;;;;;;;;;;5020277;28;20153;-73
2022/01/30 14:15:13;;;;;;;294.50;137.77;;;;;;;;;;5037187;28;20044;-75
2022/01/30 14:17:43;;;;;;;262.02;121.80;;;;;;;;;;5020417;28;20021;-73
2022/01/30 14:20:17;;;;;;;237.93;113.65;;;;;;;;;;5036800;28;20026;-74
2022/01/30 14:23:03;;;;;;;226.52;103.68;;;;;;;;;;5073486;28;20040;-72
2022/01/30 14:25:30;;;;;;;210.57;98.30;;;;;;;;;;5061291;28;20031;-73
2022/01/30 14:27:58;;;;;;;224.52;101.45;;;;;;;;;;5060811;28;20020;-76
2022/01/30 14:30:37;;;;;;;226.95;101.63;;;;;;;;;;5078484;28;20464;-75
2022/01/30 14:33:06;;;;;;;230.95;106.32;;;;;;;;;;5078862;28;20067;-76
2022/01/30 14:35:39;;;;;;;233.35;101.05;;;;;;;;;;5059656;28;20333;-75
2022/01/30 14:38:08;;;;;;;216.68;96.00;;;;;;;;;;5078152;28;20070;-76
2022/01/30 14:40:39;;;;;;;233.10;103.20;;;;;;;;;;5060445;28;20016;-76
2022/01/30 14:43:08;;;;;;;246.00;112.93;;;;;;;;;;5036327;28;20047;-76
2022/01/30 14:45:36;;;;;;;262.25;119.32;;;;;;;;;;5019678;28;20030;-78
2022/01/30 14:48:04;;;;;;;266.30;123.65;;;;;;;;;;5036083;28;20061;-76
2022/01/30 14:50:33;;;;;;;258.33;123.57;;;;;;;;;;5036197;28;20048;-74
2022/01/30 14:53:01;;;;;;;286.48;129.75;;;;;;;;;;5035855;28;20077;-76
2022/01/30 14:55:29;;;;;;;280.92;128.85;;;;;;;;;;5036118;28;20037;-75
2022/01/30 14:57:58;;;;;;;281.80;126.65;;;;;;;;;;5036286;28;20048;-76
2022/01/30 15:00:28;;;;;;;300.70;137.27;;;;;;;;;;5019568;28;20052;-76
2022/01/30 15:02:57;;;;;;;299.52;137.50;;;;;;;;;;5019495;28;20418;-77
2022/01/30 15:05:25;;;;;;;284.58;129.60;;;;;;;;;;5036116;28;20135;-76
2022/01/30 15:07:52;;;;;;;309.13;140.60;;;;;;;;;;5035944;28;20042;-76
2022/01/30 15:10:22;;;;;;;314.02;137.35;;;;;;;;;;5019592;28;20029;-78
2022/01/30 15:12:49;;;;;;;309.85;138.35;;;;;;;;;;5019494;28;20030;-77
2022/01/30 15:15:17;;;;;;;307.27;139.93;;;;;;;;;;5019470;28;20140;-76
2022/01/30 15:17:47;;;;;;;352.67;156.43;;;;;;;;;;5020084;28;20433;-77
2022/01/30 15:20:14;;;;;;;430.15;196.45;;;;;;;;;;5035747;28;20406;-75
2022/01/30 15:22:44;;;;;;;444.92;205.07;;;;;;;;;;5036130;28;20036;-76
2022/01/30 15:25:11;;;;;;;543.67;251.13;;;;;;;;;;5035948;28;20033;-76